sensor_id;sensor_type;location;lat;lon;timestamp;P1;P2;P0
79537;PMS5003;68989;52.032;5.152;2023-05-14T00:01:25;30;28;
79537;PMS5003;68989;52.032;5.152;2023-05-14T00:03:53;30;30;
79537;PMS5003;68989;52.032;5.152;2023-05-14T00:06:20;25;24;
79537;PMS5003;68989;52.032;5.152;2023-05-14T00:08:47;31;29;
79537;PMS5003;68989;52.032;5.152;2023-05-14T00:11:14;26;26;
79537;PMS5003;68989;52.032;5.152;2023-05-14T00:13:41;30;29;
79537;PMS5003;68989;52.032;5.152;2023-05-14T00:16:08;28;28;
79537;PMS5003;68989;52.032;5.152;2023-05-14T00:18:35;28;28;
79537;PMS5003;68989;52.032;5.152;2023-05-14T00:21:02;27;24;
79537;PMS5003;68989;52.032;5.152;2023-05-14T00:23:29;26;25;
79537;PMS5003;68989;52.032;5.152;2023-05-14T00:25:56;31;30;
79537;PMS5003;68989;52.032;5.152;2023-05-14T00:28:23;27;24;
79537;PMS5003;68989;52.032;5.152;2023-05-14T00:30:50;30;28;
79537;PMS5003;68989;52.032;5.152;2023-05-14T00:33:18;28;26;
79537;PMS5003;68989;52.032;5.152;2023-05-14T00:35:45;27;26;
79537;PMS5003;68989;52.032;5.152;2023-05-14T00:38:11;23;23;
79537;PMS5003;68989;52.032;5.152;2023-05-14T00:40:38;30;27;
79537;PMS5003;68989;52.032;5.152;2023-05-14T00:43:05;29;26;
79537;PMS5003;68989;52.032;5.152;2023-05-14T00:45:33;23;23;
79537;PMS5003;68989;52.032;5.152;2023-05-14T00:48:00;26;26;
79537;PMS5003;68989;52.032;5.152;2023-05-14T00:50:27;28;27;
79537;PMS5003;68989;52.032;5.152;2023-05-14T00:52:54;27;27;
79537;PMS5003;68989;52.032;5.152;2023-05-14T00:55:22;26;23;
79537;PMS5003;68989;52.032;5.152;2023-05-14T00:57:49;23;23;
79537;PMS5003;68989;52.032;5.152;2023-05-14T01:01:47;25;24;
79537;PMS5003;68989;52.032;5.152;2023-05-14T01:04:17;28;27;
79537;PMS5003;68989;52.032;5.152;2023-05-14T01:06:46;26;26;
79537;PMS5003;68989;52.032;5.152;2023-05-14T01:09:31;24;24;
79537;PMS5003;68989;52.032;5.152;2023-05-14T01:12:04;25;23;
79537;PMS5003;68989;52.032;5.152;2023-05-14T01:14:50;24;24;
79537;PMS5003;68989;52.032;5.152;2023-05-14T01:17:21;27;27;
79537;PMS5003;68989;52.032;5.152;2023-05-14T01:19:50;31;31;
79537;PMS5003;68989;52.032;5.152;2023-05-14T01:22:20;22;22;
79537;PMS5003;68989;52.032;5.152;2023-05-14T01:24:47;28;26;
79537;PMS5003;68989;52.032;5.152;2023-05-14T01:27:15;26;26;
79537;PMS5003;68989;52.032;5.152;2023-05-14T01:29:47;26;26;
79537;PMS5003;68989;52.032;5.152;2023-05-14T01:32:19;25;25;
79537;PMS5003;68989;52.032;5.152;2023-05-14T01:34:50;22;22;
79537;PMS5003;68989;52.032;5.152;2023-05-14T01:37:18;24;23;
79537;PMS5003;68989;52.032;5.152;2023-05-14T01:39:47;28;28;
79537;PMS5003;68989;52.032;5.152;2023-05-14T01:42:16;27;22;
79537;PMS5003;68989;52.032;5.152;2023-05-14T01:44:43;27;23;
79537;PMS5003;68989;52.032;5.152;2023-05-14T01:47:10;26;24;
79537;PMS5003;68989;52.032;5.152;2023-05-14T01:49:38;25;25;
79537;PMS5003;68989;52.032;5.152;2023-05-14T01:52:05;29;26;
79537;PMS5003;68989;52.032;5.152;2023-05-14T01:54:32;23;23;
79537;PMS5003;68989;52.032;5.152;2023-05-14T01:57:00;26;26;
79537;PMS5003;68989;52.032;5.152;2023-05-14T01:59:26;27;26;
79537;PMS5003;68989;52.032;5.152;2023-05-14T02:01:54;27;26;
79537;PMS5003;68989;52.032;5.152;2023-05-14T02:04:21;29;27;
79537;PMS5003;68989;52.032;5.152;2023-05-14T02:06:48;26;26;
79537;PMS5003;68989;52.032;5.152;2023-05-14T02:09:15;24;24;
79537;PMS5003;68989;52.032;5.152;2023-05-14T02:11:42;30;26;
79537;PMS5003;68989;52.032;5.152;2023-05-14T02:14:09;30;26;
79537;PMS5003;68989;52.032;5.152;2023-05-14T02:16:36;36;29;
79537;PMS5003;68989;52.032;5.152;2023-05-14T02:19:03;27;25;
79537;PMS5003;68989;52.032;5.152;2023-05-14T02:21:30;29;28;
79537;PMS5003;68989;52.032;5.152;2023-05-14T02:23:57;26;23;
79537;PMS5003;68989;52.032;5.152;2023-05-14T02:26:24;26;25;
79537;PMS5003;68989;52.032;5.152;2023-05-14T02:28:51;24;24;
79537;PMS5003;68989;52.032;5.152;2023-05-14T02:31:19;29;28;
79537;PMS5003;68989;52.032;5.152;2023-05-14T02:33:46;31;29;
79537;PMS5003;68989;52.032;5.152;2023-05-14T02:36:13;31;27;
79537;PMS5003;68989;52.032;5.152;2023-05-14T02:38:40;26;26;
79537;PMS5003;68989;52.032;5.152;2023-05-14T02:41:07;28;27;
79537;PMS5003;68989;52.032;5.152;2023-05-14T02:43:34;25;23;
79537;PMS5003;68989;52.032;5.152;2023-05-14T02:46:00;26;24;
79537;PMS5003;68989;52.032;5.152;2023-05-14T02:48:27;24;24;
79537;PMS5003;68989;52.032;5.152;2023-05-14T02:50:54;29;28;
79537;PMS5003;68989;52.032;5.152;2023-05-14T02:53:21;26;22;
79537;PMS5003;68989;52.032;5.152;2023-05-14T02:55:48;30;25;
79537;PMS5003;68989;52.032;5.152;2023-05-14T02:58:16;24;23;
79537;PMS5003;68989;52.032;5.152;2023-05-14T03:00:43;24;24;
79537;PMS5003;68989;52.032;5.152;2023-05-14T03:03:10;25;24;
79537;PMS5003;68989;52.032;5.152;2023-05-14T03:05:36;25;25;
79537;PMS5003;68989;52.032;5.152;2023-05-14T03:08:03;22;22;
79537;PMS5003;68989;52.032;5.152;2023-05-14T03:10:31;24;24;
79537;PMS5003;68989;52.032;5.152;2023-05-14T03:12:58;25;25;
79537;PMS5003;68989;52.032;5.152;2023-05-14T03:15:25;26;26;
79537;PMS5003;68989;52.032;5.152;2023-05-14T03:17:52;24;24;
79537;PMS5003;68989;52.032;5.152;2023-05-14T03:20:21;27;24;
79537;PMS5003;68989;52.032;5.152;2023-05-14T03:22:49;28;26;
79537;PMS5003;68989;52.032;5.152;2023-05-14T03:25:16;24;23;
79537;PMS5003;68989;52.032;5.152;2023-05-14T03:27:43;24;24;
79537;PMS5003;68989;52.032;5.152;2023-05-14T03:30:10;20;20;
79537;PMS5003;68989;52.032;5.152;2023-05-14T03:32:37;23;22;
79537;PMS5003;68989;52.032;5.152;2023-05-14T03:35:05;26;24;
79537;PMS5003;68989;52.032;5.152;2023-05-14T03:37:33;21;21;
79537;PMS5003;68989;52.032;5.152;2023-05-14T03:40:00;25;23;
79537;PMS5003;68989;52.032;5.152;2023-05-14T03:42:28;26;26;
79537;PMS5003;68989;52.032;5.152;2023-05-14T03:44:55;21;21;
79537;PMS5003;68989;52.032;5.152;2023-05-14T03:47:22;25;23;
79537;PMS5003;68989;52.032;5.152;2023-05-14T03:49:49;26;24;
79537;PMS5003;68989;52.032;5.152;2023-05-14T03:52:16;25;25;
79537;PMS5003;68989;52.032;5.152;2023-05-14T03:54:43;24;24;
79537;PMS5003;68989;52.032;5.152;2023-05-14T03:57:10;23;21;
79537;PMS5003;68989;52.032;5.152;2023-05-14T03:59:37;25;24;
79537;PMS5003;68989;52.032;5.152;2023-05-14T04:02:04;24;24;
79537;PMS5003;68989;52.032;5.152;2023-05-14T04:04:30;23;22;
79537;PMS5003;68989;52.032;5.152;2023-05-14T04:06:57;24;24;
79537;PMS5003;68989;52.032;5.152;2023-05-14T04:09:25;26;25;
79537;PMS5003;68989;52.032;5.152;2023-05-14T04:11:52;31;23;
79537;PMS5003;68989;52.032;5.152;2023-05-14T04:14:19;27;23;
79537;PMS5003;68989;52.032;5.152;2023-05-14T04:16:46;30;26;
79537;PMS5003;68989;52.032;5.152;2023-05-14T04:19:13;27;27;
79537;PMS5003;68989;52.032;5.152;2023-05-14T04:21:40;29;26;
79537;PMS5003;68989;52.032;5.152;2023-05-14T04:24:07;28;28;
79537;PMS5003;68989;52.032;5.152;2023-05-14T04:26:34;27;26;
79537;PMS5003;68989;52.032;5.152;2023-05-14T04:29:01;29;28;
79537;PMS5003;68989;52.032;5.152;2023-05-14T04:31:28;24;24;
79537;PMS5003;68989;52.032;5.152;2023-05-14T04:33:55;28;25;
79537;PMS5003;68989;52.032;5.152;2023-05-14T04:36:23;22;22;
79537;PMS5003;68989;52.032;5.152;2023-05-14T04:38:50;26;22;
79537;PMS5003;68989;52.032;5.152;2023-05-14T04:41:17;23;22;
79537;PMS5003;68989;52.032;5.152;2023-05-14T04:43:45;27;26;
79537;PMS5003;68989;52.032;5.152;2023-05-14T04:46:14;26;26;
79537;PMS5003;68989;52.032;5.152;2023-05-14T04:48:42;27;24;
79537;PMS5003;68989;52.032;5.152;2023-05-14T04:51:09;21;21;
79537;PMS5003;68989;52.032;5.152;2023-05-14T04:53:36;24;24;
79537;PMS5003;68989;52.032;5.152;2023-05-14T04:56:03;28;25;
79537;PMS5003;68989;52.032;5.152;2023-05-14T04:58:30;24;24;
79537;PMS5003;68989;52.032;5.152;2023-05-14T05:00:57;26;25;
79537;PMS5003;68989;52.032;5.152;2023-05-14T05:03:25;24;24;
79537;PMS5003;68989;52.032;5.152;2023-05-14T05:05:52;29;25;
79537;PMS5003;68989;52.032;5.152;2023-05-14T05:08:19;28;28;
79537;PMS5003;68989;52.032;5.152;2023-05-14T05:10:46;24;23;
79537;PMS5003;68989;52.032;5.152;2023-05-14T05:13:13;24;24;
79537;PMS5003;68989;52.032;5.152;2023-05-14T05:15:40;26;25;
79537;PMS5003;68989;52.032;5.152;2023-05-14T05:18:07;32;30;
79537;PMS5003;68989;52.032;5.152;2023-05-14T05:20:34;24;24;
79537;PMS5003;68989;52.032;5.152;2023-05-14T05:23:01;26;25;
79537;PMS5003;68989;52.032;5.152;2023-05-14T05:25:28;25;25;
79537;PMS5003;68989;52.032;5.152;2023-05-14T05:27:55;20;20;
79537;PMS5003;68989;52.032;5.152;2023-05-14T05:30:22;25;25;
79537;PMS5003;68989;52.032;5.152;2023-05-14T05:32:49;26;26;
79537;PMS5003;68989;52.032;5.152;2023-05-14T05:35:17;19;19;
79537;PMS5003;68989;52.032;5.152;2023-05-14T05:37:44;28;23;
79537;PMS5003;68989;52.032;5.152;2023-05-14T05:40:11;30;27;
79537;PMS5003;68989;52.032;5.152;2023-05-14T05:42:38;24;23;
79537;PMS5003;68989;52.032;5.152;2023-05-14T05:45:06;31;30;
79537;PMS5003;68989;52.032;5.152;2023-05-14T05:47:33;29;26;
79537;PMS5003;68989;52.032;5.152;2023-05-14T05:50:00;23;22;
79537;PMS5003;68989;52.032;5.152;2023-05-14T05:52:27;28;28;
79537;PMS5003;68989;52.032;5.152;2023-05-14T05:54:55;25;25;
79537;PMS5003;68989;52.032;5.152;2023-05-14T05:57:22;23;22;
79537;PMS5003;68989;52.032;5.152;2023-05-14T05:59:49;20;20;
79537;PMS5003;68989;52.032;5.152;2023-05-14T06:02:16;22;22;
79537;PMS5003;68989;52.032;5.152;2023-05-14T06:04:43;30;28;
79537;PMS5003;68989;52.032;5.152;2023-05-14T06:07:10;25;25;
79537;PMS5003;68989;52.032;5.152;2023-05-14T06:09:37;30;26;
79537;PMS5003;68989;52.032;5.152;2023-05-14T06:12:05;28;27;
79537;PMS5003;68989;52.032;5.152;2023-05-14T06:14:32;24;23;
79537;PMS5003;68989;52.032;5.152;2023-05-14T06:17:00;28;25;
79537;PMS5003;68989;52.032;5.152;2023-05-14T06:19:27;23;21;
79537;PMS5003;68989;52.032;5.152;2023-05-14T06:21:54;25;24;
79537;PMS5003;68989;52.032;5.152;2023-05-14T06:24:21;25;25;
79537;PMS5003;68989;52.032;5.152;2023-05-14T06:26:48;24;24;
79537;PMS5003;68989;52.032;5.152;2023-05-14T06:29:15;26;26;
79537;PMS5003;68989;52.032;5.152;2023-05-14T06:31:42;24;24;
79537;PMS5003;68989;52.032;5.152;2023-05-14T06:34:09;23;22;
79537;PMS5003;68989;52.032;5.152;2023-05-14T06:36:36;25;23;
79537;PMS5003;68989;52.032;5.152;2023-05-14T06:39:03;26;25;
79537;PMS5003;68989;52.032;5.152;2023-05-14T06:41:30;26;26;
79537;PMS5003;68989;52.032;5.152;2023-05-14T06:43:58;24;23;
79537;PMS5003;68989;52.032;5.152;2023-05-14T06:46:25;28;24;
79537;PMS5003;68989;52.032;5.152;2023-05-14T06:48:52;26;23;
79537;PMS5003;68989;52.032;5.152;2023-05-14T06:51:19;25;25;
79537;PMS5003;68989;52.032;5.152;2023-05-14T06:53:46;23;23;
79537;PMS5003;68989;52.032;5.152;2023-05-14T06:56:13;24;22;
79537;PMS5003;68989;52.032;5.152;2023-05-14T06:58:41;26;26;
79537;PMS5003;68989;52.032;5.152;2023-05-14T07:01:08;27;27;
79537;PMS5003;68989;52.032;5.152;2023-05-14T07:03:36;26;23;
79537;PMS5003;68989;52.032;5.152;2023-05-14T07:06:03;21;21;
79537;PMS5003;68989;52.032;5.152;2023-05-14T07:08:30;28;25;
79537;PMS5003;68989;52.032;5.152;2023-05-14T07:10:57;20;18;
79537;PMS5003;68989;52.032;5.152;2023-05-14T07:13:24;20;20;
79537;PMS5003;68989;52.032;5.152;2023-05-14T07:15:51;25;25;
79537;PMS5003;68989;52.032;5.152;2023-05-14T07:18:19;21;21;
79537;PMS5003;68989;52.032;5.152;2023-05-14T07:20:46;22;19;
79537;PMS5003;68989;52.032;5.152;2023-05-14T07:23:13;21;18;
79537;PMS5003;68989;52.032;5.152;2023-05-14T07:25:40;21;19;
79537;PMS5003;68989;52.032;5.152;2023-05-14T07:28:07;23;21;
79537;PMS5003;68989;52.032;5.152;2023-05-14T07:30:34;22;22;
79537;PMS5003;68989;52.032;5.152;2023-05-14T07:33:01;25;25;
79537;PMS5003;68989;52.032;5.152;2023-05-14T07:35:28;24;24;
79537;PMS5003;68989;52.032;5.152;2023-05-14T07:37:55;22;22;
79537;PMS5003;68989;52.032;5.152;2023-05-14T07:40:22;22;21;
79537;PMS5003;68989;52.032;5.152;2023-05-14T07:42:49;23;20;
79537;PMS5003;68989;52.032;5.152;2023-05-14T07:45:17;24;22;
79537;PMS5003;68989;52.032;5.152;2023-05-14T07:47:44;18;18;
79537;PMS5003;68989;52.032;5.152;2023-05-14T07:50:11;24;23;
79537;PMS5003;68989;52.032;5.152;2023-05-14T07:52:38;24;23;
79537;PMS5003;68989;52.032;5.152;2023-05-14T07:55:06;22;22;
79537;PMS5003;68989;52.032;5.152;2023-05-14T07:57:33;20;19;
79537;PMS5003;68989;52.032;5.152;2023-05-14T08:00:00;19;18;
79537;PMS5003;68989;52.032;5.152;2023-05-14T08:02:28;25;21;
79537;PMS5003;68989;52.032;5.152;2023-05-14T08:04:55;17;17;
79537;PMS5003;68989;52.032;5.152;2023-05-14T08:07:22;27;24;
79537;PMS5003;68989;52.032;5.152;2023-05-14T08:09:49;19;19;
79537;PMS5003;68989;52.032;5.152;2023-05-14T08:12:16;21;20;
79537;PMS5003;68989;52.032;5.152;2023-05-14T08:14:43;23;23;
79537;PMS5003;68989;52.032;5.152;2023-05-14T08:17:10;16;16;
79537;PMS5003;68989;52.032;5.152;2023-05-14T08:19:37;18;18;
79537;PMS5003;68989;52.032;5.152;2023-05-14T08:22:05;18;18;
79537;PMS5003;68989;52.032;5.152;2023-05-14T08:24:32;19;19;
79537;PMS5003;68989;52.032;5.152;2023-05-14T08:27:00;20;20;
79537;PMS5003;68989;52.032;5.152;2023-05-14T08:29:27;17;16;
79537;PMS5003;68989;52.032;5.152;2023-05-14T08:31:54;17;17;
79537;PMS5003;68989;52.032;5.152;2023-05-14T08:34:21;23;23;
79537;PMS5003;68989;52.032;5.152;2023-05-14T08:36:48;18;18;
79537;PMS5003;68989;52.032;5.152;2023-05-14T08:39:15;17;17;
79537;PMS5003;68989;52.032;5.152;2023-05-14T08:41:42;16;16;
79537;PMS5003;68989;52.032;5.152;2023-05-14T08:44:11;16;16;
79537;PMS5003;68989;52.032;5.152;2023-05-14T08:46:40;16;16;
79537;PMS5003;68989;52.032;5.152;2023-05-14T08:49:13;17;16;
79537;PMS5003;68989;52.032;5.152;2023-05-14T08:51:46;13;13;
79537;PMS5003;68989;52.032;5.152;2023-05-14T08:54:14;16;15;
79537;PMS5003;68989;52.032;5.152;2023-05-14T08:56:42;18;16;
79537;PMS5003;68989;52.032;5.152;2023-05-14T08:59:10;14;14;
79537;PMS5003;68989;52.032;5.152;2023-05-14T09:01:37;14;13;
79537;PMS5003;68989;52.032;5.152;2023-05-14T09:04:04;15;15;
79537;PMS5003;68989;52.032;5.152;2023-05-14T09:06:34;16;14;
79537;PMS5003;68989;52.032;5.152;2023-05-14T09:09:02;17;15;
79537;PMS5003;68989;52.032;5.152;2023-05-14T09:11:30;11;11;
79537;PMS5003;68989;52.032;5.152;2023-05-14T09:13:57;12;12;
79537;PMS5003;68989;52.032;5.152;2023-05-14T09:16:25;13;12;
79537;PMS5003;68989;52.032;5.152;2023-05-14T09:18:53;13;13;
79537;PMS5003;68989;52.032;5.152;2023-05-14T09:21:20;13;13;
79537;PMS5003;68989;52.032;5.152;2023-05-14T09:23:48;15;14;
79537;PMS5003;68989;52.032;5.152;2023-05-14T09:26:21;11;11;
79537;PMS5003;68989;52.032;5.152;2023-05-14T09:28:52;18;16;
79537;PMS5003;68989;52.032;5.152;2023-05-14T09:31:19;12;12;
79537;PMS5003;68989;52.032;5.152;2023-05-14T09:33:48;15;15;
79537;PMS5003;68989;52.032;5.152;2023-05-14T09:36:16;17;15;
79537;PMS5003;68989;52.032;5.152;2023-05-14T09:38:43;14;12;
79537;PMS5003;68989;52.032;5.152;2023-05-14T09:41:11;14;14;
79537;PMS5003;68989;52.032;5.152;2023-05-14T09:43:38;15;15;
79537;PMS5003;68989;52.032;5.152;2023-05-14T09:46:05;15;14;
79537;PMS5003;68989;52.032;5.152;2023-05-14T09:48:32;17;14;
79537;PMS5003;68989;52.032;5.152;2023-05-14T09:50:59;13;12;
79537;PMS5003;68989;52.032;5.152;2023-05-14T09:53:26;13;13;
79537;PMS5003;68989;52.032;5.152;2023-05-14T09:55:55;14;14;
79537;PMS5003;68989;52.032;5.152;2023-05-14T09:58:21;13;13;
79537;PMS5003;68989;52.032;5.152;2023-05-14T10:00:48;11;11;
79537;PMS5003;68989;52.032;5.152;2023-05-14T10:03:17;13;13;
79537;PMS5003;68989;52.032;5.152;2023-05-14T10:05:45;17;15;
79537;PMS5003;68989;52.032;5.152;2023-05-14T10:08:17;12;11;
79537;PMS5003;68989;52.032;5.152;2023-05-14T10:10:49;12;12;
79537;PMS5003;68989;52.032;5.152;2023-05-14T10:13:19;12;12;
79537;PMS5003;68989;52.032;5.152;2023-05-14T10:15:51;13;12;
79537;PMS5003;68989;52.032;5.152;2023-05-14T10:18:22;11;10;
79537;PMS5003;68989;52.032;5.152;2023-05-14T10:20:52;14;12;
79537;PMS5003;68989;52.032;5.152;2023-05-14T10:23:28;11;11;
79537;PMS5003;68989;52.032;5.152;2023-05-14T10:25:56;10;10;
79537;PMS5003;68989;52.032;5.152;2023-05-14T10:28:24;11;11;
79537;PMS5003;68989;52.032;5.152;2023-05-14T10:30:52;13;13;
79537;PMS5003;68989;52.032;5.152;2023-05-14T10:33:19;13;13;
79537;PMS5003;68989;52.032;5.152;2023-05-14T10:35:50;13;13;
79537;PMS5003;68989;52.032;5.152;2023-05-14T10:38:21;14;14;
79537;PMS5003;68989;52.032;5.152;2023-05-14T10:40:49;14;12;
79537;PMS5003;68989;52.032;5.152;2023-05-14T10:43:16;10;10;
79537;PMS5003;68989;52.032;5.152;2023-05-14T10:45:44;11;11;
79537;PMS5003;68989;52.032;5.152;2023-05-14T10:48:12;9;9;
79537;PMS5003;68989;52.032;5.152;2023-05-14T10:50:40;12;12;
79537;PMS5003;68989;52.032;5.152;2023-05-14T10:53:09;15;14;
79537;PMS5003;68989;52.032;5.152;2023-05-14T10:55:38;16;14;
79537;PMS5003;68989;52.032;5.152;2023-05-14T10:58:08;12;11;
79537;PMS5003;68989;52.032;5.152;2023-05-14T11:00:36;12;12;
79537;PMS5003;68989;52.032;5.152;2023-05-14T11:03:04;12;11;
79537;PMS5003;68989;52.032;5.152;2023-05-14T11:05:32;13;12;
79537;PMS5003;68989;52.032;5.152;2023-05-14T11:08:00;12;12;
79537;PMS5003;68989;52.032;5.152;2023-05-14T11:10:33;11;11;
79537;PMS5003;68989;52.032;5.152;2023-05-14T11:13:01;12;12;
79537;PMS5003;68989;52.032;5.152;2023-05-14T11:15:28;15;13;
79537;PMS5003;68989;52.032;5.152;2023-05-14T11:17:55;13;12;
79537;PMS5003;68989;52.032;5.152;2023-05-14T11:20:22;13;12;
79537;PMS5003;68989;52.032;5.152;2023-05-14T11:22:48;13;13;
79537;PMS5003;68989;52.032;5.152;2023-05-14T11:25:15;11;11;
79537;PMS5003;68989;52.032;5.152;2023-05-14T11:27:42;12;12;
79537;PMS5003;68989;52.032;5.152;2023-05-14T11:30:12;12;10;
79537;PMS5003;68989;52.032;5.152;2023-05-14T11:32:40;13;12;
79537;PMS5003;68989;52.032;5.152;2023-05-14T11:35:08;12;12;
79537;PMS5003;68989;52.032;5.152;2023-05-14T11:37:36;12;11;
79537;PMS5003;68989;52.032;5.152;2023-05-14T11:40:07;12;12;
79537;PMS5003;68989;52.032;5.152;2023-05-14T11:42:40;12;11;
79537;PMS5003;68989;52.032;5.152;2023-05-14T11:45:09;16;15;
79537;PMS5003;68989;52.032;5.152;2023-05-14T11:47:37;14;13;
79537;PMS5003;68989;52.032;5.152;2023-05-14T11:50:06;13;12;
79537;PMS5003;68989;52.032;5.152;2023-05-14T11:52:36;12;12;
79537;PMS5003;68989;52.032;5.152;2023-05-14T11:55:04;11;11;
79537;PMS5003;68989;52.032;5.152;2023-05-14T11:57:35;12;12;
79537;PMS5003;68989;52.032;5.152;2023-05-14T12:00:06;12;11;
79537;PMS5003;68989;52.032;5.152;2023-05-14T12:02:34;13;13;
79537;PMS5003;68989;52.032;5.152;2023-05-14T12:05:03;12;12;
79537;PMS5003;68989;52.032;5.152;2023-05-14T12:07:31;11;11;
79537;PMS5003;68989;52.032;5.152;2023-05-14T12:09:59;12;10;
79537;PMS5003;68989;52.032;5.152;2023-05-14T12:12:32;12;12;
79537;PMS5003;68989;52.032;5.152;2023-05-14T12:15:01;12;12;
79537;PMS5003;68989;52.032;5.152;2023-05-14T12:17:36;17;16;
79537;PMS5003;68989;52.032;5.152;2023-05-14T12:20:03;12;12;
79537;PMS5003;68989;52.032;5.152;2023-05-14T12:22:33;10;10;
79537;PMS5003;68989;52.032;5.152;2023-05-14T12:25:00;12;12;
79537;PMS5003;68989;52.032;5.152;2023-05-14T12:27:28;11;11;
79537;PMS5003;68989;52.032;5.152;2023-05-14T12:29:57;13;13;
79537;PMS5003;68989;52.032;5.152;2023-05-14T12:32:25;17;15;
79537;PMS5003;68989;52.032;5.152;2023-05-14T12:34:51;15;14;
79537;PMS5003;68989;52.032;5.152;2023-05-14T12:37:18;14;14;
79537;PMS5003;68989;52.032;5.152;2023-05-14T12:39:45;16;13;
79537;PMS5003;68989;52.032;5.152;2023-05-14T12:42:13;16;15;
79537;PMS5003;68989;52.032;5.152;2023-05-14T12:44:41;9;9;
79537;PMS5003;68989;52.032;5.152;2023-05-14T12:47:09;13;12;
79537;PMS5003;68989;52.032;5.152;2023-05-14T12:49:36;18;17;
79537;PMS5003;68989;52.032;5.152;2023-05-14T12:52:03;13;13;
79537;PMS5003;68989;52.032;5.152;2023-05-14T12:54:30;13;13;
79537;PMS5003;68989;52.032;5.152;2023-05-14T12:56:57;14;14;
79537;PMS5003;68989;52.032;5.152;2023-05-14T12:59:24;10;10;
79537;PMS5003;68989;52.032;5.152;2023-05-14T13:01:52;10;10;
79537;PMS5003;68989;52.032;5.152;2023-05-14T13:04:19;16;16;
79537;PMS5003;68989;52.032;5.152;2023-05-14T13:06:46;17;16;
79537;PMS5003;68989;52.032;5.152;2023-05-14T13:09:12;15;14;
79537;PMS5003;68989;52.032;5.152;2023-05-14T13:11:39;16;16;
79537;PMS5003;68989;52.032;5.152;2023-05-14T13:14:07;11;11;
79537;PMS5003;68989;52.032;5.152;2023-05-14T13:16:33;12;11;
79537;PMS5003;68989;52.032;5.152;2023-05-14T13:19:00;15;14;
79537;PMS5003;68989;52.032;5.152;2023-05-14T13:21:27;11;11;
79537;PMS5003;68989;52.032;5.152;2023-05-14T13:23:55;13;13;
79537;PMS5003;68989;52.032;5.152;2023-05-14T13:26:22;12;12;
79537;PMS5003;68989;52.032;5.152;2023-05-14T13:28:49;13;13;
79537;PMS5003;68989;52.032;5.152;2023-05-14T13:31:16;12;12;
79537;PMS5003;68989;52.032;5.152;2023-05-14T13:33:43;15;14;
79537;PMS5003;68989;52.032;5.152;2023-05-14T13:36:12;12;12;
79537;PMS5003;68989;52.032;5.152;2023-05-14T13:38:40;12;12;
79537;PMS5003;68989;52.032;5.152;2023-05-14T13:41:06;12;12;
79537;PMS5003;68989;52.032;5.152;2023-05-14T13:43:34;16;15;
79537;PMS5003;68989;52.032;5.152;2023-05-14T13:46:01;15;14;
79537;PMS5003;68989;52.032;5.152;2023-05-14T13:48:29;12;12;
79537;PMS5003;68989;52.032;5.152;2023-05-14T13:50:56;17;17;
79537;PMS5003;68989;52.032;5.152;2023-05-14T13:53:24;11;11;
79537;PMS5003;68989;52.032;5.152;2023-05-14T13:55:51;15;15;
79537;PMS5003;68989;52.032;5.152;2023-05-14T13:58:18;12;12;
79537;PMS5003;68989;52.032;5.152;2023-05-14T14:00:44;12;12;
79537;PMS5003;68989;52.032;5.152;2023-05-14T14:03:11;13;13;
79537;PMS5003;68989;52.032;5.152;2023-05-14T14:05:38;15;15;
79537;PMS5003;68989;52.032;5.152;2023-05-14T14:08:05;14;14;
79537;PMS5003;68989;52.032;5.152;2023-05-14T14:10:32;12;11;
79537;PMS5003;68989;52.032;5.152;2023-05-14T14:12:59;14;14;
79537;PMS5003;68989;52.032;5.152;2023-05-14T14:15:26;16;14;
79537;PMS5003;68989;52.032;5.152;2023-05-14T14:17:52;14;14;
79537;PMS5003;68989;52.032;5.152;2023-05-14T14:20:20;10;10;
79537;PMS5003;68989;52.032;5.152;2023-05-14T14:22:47;13;13;
79537;PMS5003;68989;52.032;5.152;2023-05-14T14:25:13;16;15;
79537;PMS5003;68989;52.032;5.152;2023-05-14T14:27:40;15;15;
79537;PMS5003;68989;52.032;5.152;2023-05-14T14:30:08;16;14;
79537;PMS5003;68989;52.032;5.152;2023-05-14T14:32:36;17;15;
79537;PMS5003;68989;52.032;5.152;2023-05-14T14:35:03;17;17;
79537;PMS5003;68989;52.032;5.152;2023-05-14T14:37:31;16;16;
79537;PMS5003;68989;52.032;5.152;2023-05-14T14:39:57;15;15;
79537;PMS5003;68989;52.032;5.152;2023-05-14T14:42:24;18;14;
79537;PMS5003;68989;52.032;5.152;2023-05-14T14:44:51;15;15;
79537;PMS5003;68989;52.032;5.152;2023-05-14T14:47:17;15;15;
79537;PMS5003;68989;52.032;5.152;2023-05-14T14:49:44;17;17;
79537;PMS5003;68989;52.032;5.152;2023-05-14T14:52:11;16;15;
79537;PMS5003;68989;52.032;5.152;2023-05-14T14:54:38;17;15;
79537;PMS5003;68989;52.032;5.152;2023-05-14T14:57:05;15;15;
79537;PMS5003;68989;52.032;5.152;2023-05-14T14:59:33;14;14;
79537;PMS5003;68989;52.032;5.152;2023-05-14T15:02:00;16;15;
79537;PMS5003;68989;52.032;5.152;2023-05-14T15:04:27;15;15;
79537;PMS5003;68989;52.032;5.152;2023-05-14T15:06:54;13;13;
79537;PMS5003;68989;52.032;5.152;2023-05-14T15:09:21;16;16;
79537;PMS5003;68989;52.032;5.152;2023-05-14T15:11:48;13;13;
79537;PMS5003;68989;52.032;5.152;2023-05-14T15:14:14;12;12;
79537;PMS5003;68989;52.032;5.152;2023-05-14T15:16:41;14;12;
79537;PMS5003;68989;52.032;5.152;2023-05-14T15:19:08;16;15;
79537;PMS5003;68989;52.032;5.152;2023-05-14T15:21:36;15;14;
79537;PMS5003;68989;52.032;5.152;2023-05-14T15:24:04;12;12;
79537;PMS5003;68989;52.032;5.152;2023-05-14T15:26:31;17;15;
79537;PMS5003;68989;52.032;5.152;2023-05-14T15:28:58;17;15;
79537;PMS5003;68989;52.032;5.152;2023-05-14T15:31:24;14;14;
79537;PMS5003;68989;52.032;5.152;2023-05-14T15:33:52;17;17;
79537;PMS5003;68989;52.032;5.152;2023-05-14T15:36:19;14;14;
79537;PMS5003;68989;52.032;5.152;2023-05-14T15:38:46;18;15;
79537;PMS5003;68989;52.032;5.152;2023-05-14T15:41:14;15;13;
79537;PMS5003;68989;52.032;5.152;2023-05-14T15:43:41;13;13;
79537;PMS5003;68989;52.032;5.152;2023-05-14T15:46:09;17;15;
79537;PMS5003;68989;52.032;5.152;2023-05-14T15:48:36;16;16;
79537;PMS5003;68989;52.032;5.152;2023-05-14T15:51:03;16;16;
79537;PMS5003;68989;52.032;5.152;2023-05-14T15:53:30;12;12;
79537;PMS5003;68989;52.032;5.152;2023-05-14T15:55:57;15;14;
79537;PMS5003;68989;52.032;5.152;2023-05-14T15:58:25;17;14;
79537;PMS5003;68989;52.032;5.152;2023-05-14T16:00:51;12;12;
79537;PMS5003;68989;52.032;5.152;2023-05-14T16:03:18;19;17;
79537;PMS5003;68989;52.032;5.152;2023-05-14T16:05:45;13;13;
79537;PMS5003;68989;52.032;5.152;2023-05-14T16:08:12;15;15;
79537;PMS5003;68989;52.032;5.152;2023-05-14T16:10:39;16;16;
79537;PMS5003;68989;52.032;5.152;2023-05-14T16:13:06;13;13;
79537;PMS5003;68989;52.032;5.152;2023-05-14T16:15:33;18;16;
79537;PMS5003;68989;52.032;5.152;2023-05-14T16:18:00;17;16;
79537;PMS5003;68989;52.032;5.152;2023-05-14T16:20:27;17;17;
79537;PMS5003;68989;52.032;5.152;2023-05-14T16:22:54;16;16;